Pittsburg, NH

4:37 AM EST on December 22, 2014 (GMT -0500)
First Connecticut Lake | Change Station
CLOSE
Current Station
Personal Weather Station
Location: Pittsburg, NH
Elevation: 1854 ft
Nearby Weather Stations

Elev 1854 ft 45.11 °N, 71.29 °W | Updated 1 second ago

Overcast
Overcast
19.2 °F
Feels Like 19 °F
N
0.0
Wind Variable Wind from SSE
Gusts 0.0 mph

Today
High -- | Low -- °F
--% Chance of Precip.
Yesterday
High -- | Low -- °F
Precip. -- in
7:21 AM 4:06 PM
New Moon, 0% visible
Pressure 30.32 in
Visibility 9.0 miles
Clouds Scattered Clouds 2000 ft
Overcast 3700 ft
Windchill 19 °F
Dew Point 18 °F
Humidity 94%
Rainfall 0.00 in
Snow Depth Not available.
UV 0.0 out of 12
Pollen .10 out of 12
Air Quality Not available.
Flu Activity Not available.
SPECI KBML 220929Z AUTO 00000KT 9SM SCT020 OVC037 M06/M07 A3032 RMK AO2 T10561072

More Conditions Fewer Conditions

Pressure 30.32 in
Visibility 9.0 miles
Clouds Scattered Clouds 2000 ft
Overcast 3700 ft
Windchill 19 °F
Dew Point 18 °F
Humidity 94%
Rainfall 0.00 in
Snow Depth Not available.
UV 0.0 out of 12
Pollen .10 out of 12
Air Quality Not available.
Flu Activity Not available.
SPECI KBML 220929Z AUTO 00000KT 9SM SCT020 OVC037 M06/M07 A3032 RMK AO2 T10561072

More Conditions Fewer Conditions

10-Day Weather Forecast

Almanac

Astronomy

Dec. 22, 2014 Rise Set
Actual Time
Civil Twilight
Nautical Twilight
Astronomical Twilight
Moon
Length of Visible Light
Length of Day
Tomorrow will be .
, % of the Moon is Illuminated

Today's Extremes

State Highs State Lows

Community

WunderPhotos

Upload Photos

1,779,583 photos uploaded!

WunderBlogs® & News

Nearby

Air Quality

  Air Quality AQ Index Pollutant
Not available.

Snow Depth

Station Depth Elevation

Earthquake Activity

City Distance Mag. Time & Date
Minimum magnitude displayed is 2.5.

Coastal Water Temperatures

Place Temperature

Nearby Weather Stations